O'Fallon, MO

1:14 PM CDT on October 25, 2014 (GMT -0500)
Ofallon Civic Park | Change Station
CLOSE
Current Station
Personal Weather Station
Location: Ofallon, MO
Elevation: 521 ft
Nearby Weather Stations

Elev 521 ft 38.81 °N, 90.70 °W | Updated 56 seconds ago

Clear
Clear
77.5 °F
Feels Like 79 °F
N
1.0
Wind Variable Wind from West
Gusts 0.0 mph

Today
High -- | Low -- °F
--% Chance of Precip.
Yesterday
High -- | Low -- °F
Precip. -- in
7:22 AM 6:10 PM
Waxing Crescent, 4% visible
Pressure 30.01 in
Visibility 10.0 miles
Clouds Clear
Heat Index 79 °F
Dew Point 62 °F
Humidity 59%
Rainfall 0.00 in
Snow Depth Not available.
UV 5 out of 12
Pollen 2.90 out of 12
Air Quality Not available.
Flu Activity No Activity
METAR KSUS 251754Z 00000KT 10SM CLR 25/16 A3002 RMK AO2 SLP161 T02500161 10250 20106 58006

More Conditions Fewer Conditions

Pressure 30.01 in
Visibility 10.0 miles
Clouds Clear
Heat Index 79 °F
Dew Point 62 °F
Humidity 59%
Rainfall 0.00 in
Snow Depth Not available.
UV 5 out of 12
Pollen 2.90 out of 12
Air Quality Not available.
Flu Activity No Activity
METAR KSUS 251754Z 00000KT 10SM CLR 25/16 A3002 RMK AO2 SLP161 T02500161 10250 20106 58006

More Conditions Fewer Conditions

10-Day Weather Forecast

Almanac

Astronomy

Oct. 25, 2014 Rise Set
Actual Time 7:22 AM CDT 6:10 PM CDT
Civil Twilight 6:55 AM CDT 6:37 PM CDT
Nautical Twilight 6:23 AM CDT 7:09 PM CDT
Astronomical Twilight 5:53 AM CDT 7:39 PM CDT
Moon 9:00 AM CDT 7:34 PM CDT
Length of Visible Light 11h 42m
Length of Day
10h 48m
Tomorrow will be 2m 18s shorter.
Waxing Crescent, 4% of the Moon is Illuminated
Today
Waxing Crescent
Oct 30
First Quarter
Nov 6
Full
Nov 14
Last Quarter
Nov 22
New

Today's Extremes

State Highs State Lows

Community

WunderPhotos

Upload Photos

1,764,928 photos uploaded!

Nearby

Snow Depth

Station Depth Elevation
No new snow has been reported.

Earthquake Activity

City Distance Mag. Time & Date
No recent earthquake activity has been reported nearby.
Minimum magnitude displayed is 2.5.

Coastal Water Temperatures

Place Temperature
No Stations Reporting

Nearby Weather Stations